sensor_id;sensor_type;location;lat;lon;timestamp;P1;durP1;ratioP1;P2;durP2;ratioP2
17790;SDS011;9019;48.132;-1.210;2023-03-23T00:02:07;18.40;;;3.43;;
17790;SDS011;9019;48.132;-1.210;2023-03-23T00:04:35;20.47;;;3.73;;
17790;SDS011;9019;48.132;-1.210;2023-03-23T00:07:02;14.93;;;3.00;;
17790;SDS011;9019;48.132;-1.210;2023-03-23T00:09:30;16.53;;;3.50;;
17790;SDS011;9019;48.132;-1.210;2023-03-23T00:11:59;19.27;;;3.33;;
17790;SDS011;9019;48.132;-1.210;2023-03-23T00:14:31;15.10;;;3.80;;
17790;SDS011;9019;48.132;-1.210;2023-03-23T00:17:06;14.03;;;3.40;;
17790;SDS011;9019;48.132;-1.210;2023-03-23T00:19:36;17.30;;;3.63;;
17790;SDS011;9019;48.132;-1.210;2023-03-23T00:22:17;15.00;;;3.53;;
17790;SDS011;9019;48.132;-1.210;2023-03-23T00:24:46;20.03;;;3.90;;
17790;SDS011;9019;48.132;-1.210;2023-03-23T00:27:15;18.47;;;3.73;;
17790;SDS011;9019;48.132;-1.210;2023-03-23T00:29:42;18.13;;;3.50;;
17790;SDS011;9019;48.132;-1.210;2023-03-23T00:32:11;17.27;;;3.70;;
17790;SDS011;9019;48.132;-1.210;2023-03-23T00:34:40;16.57;;;3.10;;
17790;SDS011;9019;48.132;-1.210;2023-03-23T00:37:11;16.40;;;3.30;;
17790;SDS011;9019;48.132;-1.210;2023-03-23T00:39:41;16.73;;;3.47;;
17790;SDS011;9019;48.132;-1.210;2023-03-23T00:42:10;14.80;;;3.20;;
17790;SDS011;9019;48.132;-1.210;2023-03-23T00:44:37;15.87;;;3.00;;
17790;SDS011;9019;48.132;-1.210;2023-03-23T00:47:05;16.53;;;2.97;;
17790;SDS011;9019;48.132;-1.210;2023-03-23T00:49:33;12.40;;;3.03;;
17790;SDS011;9019;48.132;-1.210;2023-03-23T00:52:03;12.00;;;2.20;;
17790;SDS011;9019;48.132;-1.210;2023-03-23T00:54:31;14.33;;;2.77;;
17790;SDS011;9019;48.132;-1.210;2023-03-23T00:56:59;11.23;;;2.67;;
17790;SDS011;9019;48.132;-1.210;2023-03-23T00:59:27;11.67;;;2.43;;
17790;SDS011;9019;48.132;-1.210;2023-03-23T01:01:54;10.83;;;2.67;;
17790;SDS011;9019;48.132;-1.210;2023-03-23T01:04:21;11.47;;;2.40;;
17790;SDS011;9019;48.132;-1.210;2023-03-23T01:06:49;12.80;;;2.43;;
17790;SDS011;9019;48.132;-1.210;2023-03-23T01:09:18;9.57;;;2.33;;
17790;SDS011;9019;48.132;-1.210;2023-03-23T01:11:46;10.83;;;2.47;;
17790;SDS011;9019;48.132;-1.210;2023-03-23T01:14:14;7.87;;;2.57;;
17790;SDS011;9019;48.132;-1.210;2023-03-23T01:16:42;12.17;;;2.60;;
17790;SDS011;9019;48.132;-1.210;2023-03-23T01:19:09;11.63;;;2.47;;
17790;SDS011;9019;48.132;-1.210;2023-03-23T01:21:36;10.13;;;2.20;;
17790;SDS011;9019;48.132;-1.210;2023-03-23T01:24:04;9.50;;;2.50;;
17790;SDS011;9019;48.132;-1.210;2023-03-23T01:26:33;8.00;;;2.07;;
17790;SDS011;9019;48.132;-1.210;2023-03-23T01:29:00;9.83;;;2.40;;
17790;SDS011;9019;48.132;-1.210;2023-03-23T01:31:27;9.57;;;2.30;;
17790;SDS011;9019;48.132;-1.210;2023-03-23T01:33:54;9.27;;;2.33;;
17790;SDS011;9019;48.132;-1.210;2023-03-23T01:36:22;8.63;;;2.77;;
17790;SDS011;9019;48.132;-1.210;2023-03-23T01:38:50;7.00;;;1.73;;
17790;SDS011;9019;48.132;-1.210;2023-03-23T01:41:18;11.47;;;2.97;;
17790;SDS011;9019;48.132;-1.210;2023-03-23T01:43:59;8.87;;;2.33;;
17790;SDS011;9019;48.132;-1.210;2023-03-23T01:46:28;9.13;;;2.30;;
17790;SDS011;9019;48.132;-1.210;2023-03-23T01:48:55;10.97;;;2.50;;
17790;SDS011;9019;48.132;-1.210;2023-03-23T01:51:23;6.93;;;2.17;;
17790;SDS011;9019;48.132;-1.210;2023-03-23T01:53:52;9.40;;;2.27;;
17790;SDS011;9019;48.132;-1.210;2023-03-23T01:56:21;12.73;;;2.43;;
17790;SDS011;9019;48.132;-1.210;2023-03-23T01:58:50;6.73;;;1.90;;
17790;SDS011;9019;48.132;-1.210;2023-03-23T02:01:19;8.97;;;2.30;;
17790;SDS011;9019;48.132;-1.210;2023-03-23T02:03:50;12.30;;;2.53;;
17790;SDS011;9019;48.132;-1.210;2023-03-23T02:06:18;11.20;;;2.70;;
17790;SDS011;9019;48.132;-1.210;2023-03-23T02:08:45;9.40;;;2.70;;
17790;SDS011;9019;48.132;-1.210;2023-03-23T02:11:15;5.13;;;1.73;;
17790;SDS011;9019;48.132;-1.210;2023-03-23T02:13:43;11.97;;;2.27;;
17790;SDS011;9019;48.132;-1.210;2023-03-23T02:16:13;10.57;;;2.10;;
17790;SDS011;9019;48.132;-1.210;2023-03-23T02:18:46;6.87;;;2.17;;
17790;SDS011;9019;48.132;-1.210;2023-03-23T02:26:50;7.93;;;2.00;;
17790;SDS011;9019;48.132;-1.210;2023-03-23T02:32:10;13.07;;;2.20;;
17790;SDS011;9019;48.132;-1.210;2023-03-23T02:34:40;7.47;;;1.87;;
17790;SDS011;9019;48.132;-1.210;2023-03-23T02:37:09;7.93;;;1.97;;
17790;SDS011;9019;48.132;-1.210;2023-03-23T02:39:40;13.17;;;2.63;;
17790;SDS011;9019;48.132;-1.210;2023-03-23T02:42:10;9.60;;;2.23;;
17790;SDS011;9019;48.132;-1.210;2023-03-23T02:44:39;9.90;;;2.33;;
17790;SDS011;9019;48.132;-1.210;2023-03-23T02:47:09;12.07;;;2.60;;
17790;SDS011;9019;48.132;-1.210;2023-03-23T02:49:38;11.23;;;2.27;;
17790;SDS011;9019;48.132;-1.210;2023-03-23T02:52:09;9.13;;;2.30;;
17790;SDS011;9019;48.132;-1.210;2023-03-23T02:54:39;11.87;;;2.10;;
17790;SDS011;9019;48.132;-1.210;2023-03-23T02:57:07;8.77;;;1.90;;
17790;SDS011;9019;48.132;-1.210;2023-03-23T02:59:35;14.53;;;2.33;;
17790;SDS011;9019;48.132;-1.210;2023-03-23T03:02:04;10.03;;;2.60;;
17790;SDS011;9019;48.132;-1.210;2023-03-23T03:04:32;10.00;;;2.50;;
17790;SDS011;9019;48.132;-1.210;2023-03-23T03:09:56;12.73;;;2.40;;
17790;SDS011;9019;48.132;-1.210;2023-03-23T03:12:39;12.67;;;2.63;;
17790;SDS011;9019;48.132;-1.210;2023-03-23T03:15:11;10.27;;;2.40;;
17790;SDS011;9019;48.132;-1.210;2023-03-23T03:17:40;11.00;;;2.50;;
17790;SDS011;9019;48.132;-1.210;2023-03-23T03:20:09;11.63;;;2.10;;
17790;SDS011;9019;48.132;-1.210;2023-03-23T03:22:39;12.53;;;2.20;;
17790;SDS011;9019;48.132;-1.210;2023-03-23T03:25:09;15.23;;;2.80;;
17790;SDS011;9019;48.132;-1.210;2023-03-23T03:27:39;8.50;;;2.30;;
17790;SDS011;9019;48.132;-1.210;2023-03-23T03:30:07;10.07;;;2.40;;
17790;SDS011;9019;48.132;-1.210;2023-03-23T03:32:38;14.03;;;2.60;;
17790;SDS011;9019;48.132;-1.210;2023-03-23T03:35:08;11.53;;;2.40;;
17790;SDS011;9019;48.132;-1.210;2023-03-23T03:37:36;16.50;;;2.53;;
17790;SDS011;9019;48.132;-1.210;2023-03-23T03:40:06;12.43;;;2.83;;
17790;SDS011;9019;48.132;-1.210;2023-03-23T03:42:38;11.50;;;2.37;;
17790;SDS011;9019;48.132;-1.210;2023-03-23T03:45:06;13.67;;;2.27;;
17790;SDS011;9019;48.132;-1.210;2023-03-23T03:47:34;14.63;;;2.73;;
17790;SDS011;9019;48.132;-1.210;2023-03-23T03:50:01;10.87;;;2.33;;
17790;SDS011;9019;48.132;-1.210;2023-03-23T03:52:28;14.17;;;3.20;;
17790;SDS011;9019;48.132;-1.210;2023-03-23T03:54:56;16.23;;;2.67;;
17790;SDS011;9019;48.132;-1.210;2023-03-23T03:57:23;14.93;;;3.10;;
17790;SDS011;9019;48.132;-1.210;2023-03-23T03:59:52;16.73;;;2.67;;
17790;SDS011;9019;48.132;-1.210;2023-03-23T04:02:19;9.33;;;2.23;;
17790;SDS011;9019;48.132;-1.210;2023-03-23T04:04:47;12.87;;;3.33;;
17790;SDS011;9019;48.132;-1.210;2023-03-23T04:07:14;10.53;;;2.63;;
17790;SDS011;9019;48.132;-1.210;2023-03-23T04:09:42;13.57;;;2.80;;
17790;SDS011;9019;48.132;-1.210;2023-03-23T04:12:11;11.33;;;2.13;;
17790;SDS011;9019;48.132;-1.210;2023-03-23T04:14:38;12.87;;;3.07;;
17790;SDS011;9019;48.132;-1.210;2023-03-23T04:17:07;13.27;;;2.50;;
17790;SDS011;9019;48.132;-1.210;2023-03-23T04:19:35;14.90;;;3.30;;
17790;SDS011;9019;48.132;-1.210;2023-03-23T04:22:03;15.10;;;2.90;;
17790;SDS011;9019;48.132;-1.210;2023-03-23T04:24:30;12.83;;;2.80;;
17790;SDS011;9019;48.132;-1.210;2023-03-23T04:26:58;17.83;;;2.90;;
17790;SDS011;9019;48.132;-1.210;2023-03-23T04:29:26;16.57;;;2.80;;
17790;SDS011;9019;48.132;-1.210;2023-03-23T04:31:53;11.50;;;2.73;;
17790;SDS011;9019;48.132;-1.210;2023-03-23T04:34:23;14.00;;;2.80;;
17790;SDS011;9019;48.132;-1.210;2023-03-23T04:36:50;15.97;;;3.13;;
17790;SDS011;9019;48.132;-1.210;2023-03-23T04:39:18;16.10;;;2.63;;
17790;SDS011;9019;48.132;-1.210;2023-03-23T04:41:45;15.03;;;2.67;;
17790;SDS011;9019;48.132;-1.210;2023-03-23T04:44:12;18.20;;;3.07;;
17790;SDS011;9019;48.132;-1.210;2023-03-23T04:46:42;15.87;;;2.73;;
17790;SDS011;9019;48.132;-1.210;2023-03-23T04:49:14;15.70;;;3.27;;
17790;SDS011;9019;48.132;-1.210;2023-03-23T04:51:47;15.93;;;3.13;;
17790;SDS011;9019;48.132;-1.210;2023-03-23T04:54:15;17.00;;;3.03;;
17790;SDS011;9019;48.132;-1.210;2023-03-23T04:56:43;14.37;;;3.10;;
17790;SDS011;9019;48.132;-1.210;2023-03-23T04:59:10;18.03;;;3.03;;
17790;SDS011;9019;48.132;-1.210;2023-03-23T05:01:38;12.83;;;2.70;;
17790;SDS011;9019;48.132;-1.210;2023-03-23T05:04:05;12.73;;;3.10;;
17790;SDS011;9019;48.132;-1.210;2023-03-23T05:06:32;16.27;;;3.07;;
17790;SDS011;9019;48.132;-1.210;2023-03-23T05:09:01;16.83;;;3.40;;
17790;SDS011;9019;48.132;-1.210;2023-03-23T05:11:28;12.40;;;3.03;;
17790;SDS011;9019;48.132;-1.210;2023-03-23T05:13:55;20.10;;;3.70;;
17790;SDS011;9019;48.132;-1.210;2023-03-23T05:16:23;19.87;;;3.33;;
17790;SDS011;9019;48.132;-1.210;2023-03-23T05:18:50;17.33;;;2.90;;
17790;SDS011;9019;48.132;-1.210;2023-03-23T05:21:18;12.80;;;2.73;;
17790;SDS011;9019;48.132;-1.210;2023-03-23T05:23:46;14.87;;;3.00;;
17790;SDS011;9019;48.132;-1.210;2023-03-23T05:26:20;13.43;;;3.03;;
17790;SDS011;9019;48.132;-1.210;2023-03-23T05:28:48;14.73;;;3.20;;
17790;SDS011;9019;48.132;-1.210;2023-03-23T05:31:17;13.17;;;3.30;;
17790;SDS011;9019;48.132;-1.210;2023-03-23T05:33:44;14.47;;;2.70;;
17790;SDS011;9019;48.132;-1.210;2023-03-23T05:36:11;17.13;;;3.00;;
17790;SDS011;9019;48.132;-1.210;2023-03-23T05:38:39;14.57;;;3.20;;
17790;SDS011;9019;48.132;-1.210;2023-03-23T05:41:10;11.00;;;2.50;;
17790;SDS011;9019;48.132;-1.210;2023-03-23T05:43:38;14.17;;;3.03;;
17790;SDS011;9019;48.132;-1.210;2023-03-23T05:46:06;13.60;;;2.83;;
17790;SDS011;9019;48.132;-1.210;2023-03-23T05:48:33;11.80;;;2.80;;
17790;SDS011;9019;48.132;-1.210;2023-03-23T05:51:01;13.07;;;3.33;;
17790;SDS011;9019;48.132;-1.210;2023-03-23T05:53:28;11.57;;;2.63;;
17790;SDS011;9019;48.132;-1.210;2023-03-23T05:55:57;11.23;;;2.30;;
17790;SDS011;9019;48.132;-1.210;2023-03-23T05:58:25;7.97;;;2.40;;
17790;SDS011;9019;48.132;-1.210;2023-03-23T06:00:53;14.40;;;2.70;;
17790;SDS011;9019;48.132;-1.210;2023-03-23T06:03:21;13.07;;;2.97;;
17790;SDS011;9019;48.132;-1.210;2023-03-23T06:05:48;14.17;;;3.17;;
17790;SDS011;9019;48.132;-1.210;2023-03-23T06:08:15;14.97;;;3.20;;
17790;SDS011;9019;48.132;-1.210;2023-03-23T06:10:43;12.87;;;2.80;;
17790;SDS011;9019;48.132;-1.210;2023-03-23T06:13:10;19.63;;;3.33;;
17790;SDS011;9019;48.132;-1.210;2023-03-23T06:15:37;14.27;;;3.03;;
17790;SDS011;9019;48.132;-1.210;2023-03-23T06:18:06;13.73;;;2.67;;
17790;SDS011;9019;48.132;-1.210;2023-03-23T06:20:33;16.93;;;3.43;;
17790;SDS011;9019;48.132;-1.210;2023-03-23T06:23:01;15.97;;;3.40;;
17790;SDS011;9019;48.132;-1.210;2023-03-23T06:25:29;15.67;;;3.83;;
17790;SDS011;9019;48.132;-1.210;2023-03-23T06:27:56;21.03;;;4.20;;
17790;SDS011;9019;48.132;-1.210;2023-03-23T06:30:24;16.33;;;3.63;;
17790;SDS011;9019;48.132;-1.210;2023-03-23T06:32:51;21.03;;;3.93;;
17790;SDS011;9019;48.132;-1.210;2023-03-23T06:35:20;21.90;;;4.77;;
17790;SDS011;9019;48.132;-1.210;2023-03-23T06:37:47;18.50;;;3.63;;
17790;SDS011;9019;48.132;-1.210;2023-03-23T06:40:16;22.10;;;3.90;;
17790;SDS011;9019;48.132;-1.210;2023-03-23T06:42:44;18.17;;;4.33;;
17790;SDS011;9019;48.132;-1.210;2023-03-23T06:45:11;17.87;;;3.57;;
17790;SDS011;9019;48.132;-1.210;2023-03-23T06:47:39;20.13;;;3.70;;
17790;SDS011;9019;48.132;-1.210;2023-03-23T06:50:06;17.57;;;2.77;;
17790;SDS011;9019;48.132;-1.210;2023-03-23T06:52:36;24.03;;;4.10;;
17790;SDS011;9019;48.132;-1.210;2023-03-23T06:55:04;20.03;;;4.07;;
17790;SDS011;9019;48.132;-1.210;2023-03-23T06:57:32;21.03;;;4.10;;
17790;SDS011;9019;48.132;-1.210;2023-03-23T06:59:59;14.33;;;3.27;;
17790;SDS011;9019;48.132;-1.210;2023-03-23T07:02:30;18.60;;;3.60;;
17790;SDS011;9019;48.132;-1.210;2023-03-23T07:04:58;16.73;;;3.80;;
17790;SDS011;9019;48.132;-1.210;2023-03-23T07:07:25;18.90;;;3.33;;
17790;SDS011;9019;48.132;-1.210;2023-03-23T07:09:54;22.17;;;4.17;;
17790;SDS011;9019;48.132;-1.210;2023-03-23T07:12:21;19.63;;;4.20;;
17790;SDS011;9019;48.132;-1.210;2023-03-23T07:14:48;25.37;;;4.60;;
17790;SDS011;9019;48.132;-1.210;2023-03-23T07:17:16;20.93;;;3.90;;
17790;SDS011;9019;48.132;-1.210;2023-03-23T07:19:45;23.17;;;3.97;;
17790;SDS011;9019;48.132;-1.210;2023-03-23T07:22:13;24.33;;;4.00;;
17790;SDS011;9019;48.132;-1.210;2023-03-23T07:24:41;24.90;;;4.33;;
17790;SDS011;9019;48.132;-1.210;2023-03-23T07:27:12;19.43;;;3.23;;
17790;SDS011;9019;48.132;-1.210;2023-03-23T07:29:40;19.73;;;3.97;;
17790;SDS011;9019;48.132;-1.210;2023-03-23T07:32:08;19.23;;;3.77;;
17790;SDS011;9019;48.132;-1.210;2023-03-23T07:34:37;18.97;;;4.00;;
17790;SDS011;9019;48.132;-1.210;2023-03-23T07:37:04;21.90;;;4.43;;
17790;SDS011;9019;48.132;-1.210;2023-03-23T07:39:31;17.93;;;3.60;;
17790;SDS011;9019;48.132;-1.210;2023-03-23T07:41:59;20.83;;;4.70;;
17790;SDS011;9019;48.132;-1.210;2023-03-23T07:44:28;20.97;;;4.33;;
17790;SDS011;9019;48.132;-1.210;2023-03-23T07:46:55;24.37;;;4.73;;
17790;SDS011;9019;48.132;-1.210;2023-03-23T07:49:22;20.73;;;4.73;;
17790;SDS011;9019;48.132;-1.210;2023-03-23T07:51:51;21.83;;;4.30;;
17790;SDS011;9019;48.132;-1.210;2023-03-23T07:54:18;24.80;;;4.10;;
17790;SDS011;9019;48.132;-1.210;2023-03-23T07:56:46;19.10;;;4.73;;
17790;SDS011;9019;48.132;-1.210;2023-03-23T07:59:13;22.23;;;5.00;;
17790;SDS011;9019;48.132;-1.210;2023-03-23T08:01:41;22.17;;;4.40;;
17790;SDS011;9019;48.132;-1.210;2023-03-23T08:04:08;22.57;;;4.27;;
17790;SDS011;9019;48.132;-1.210;2023-03-23T08:06:38;21.80;;;4.90;;
17790;SDS011;9019;48.132;-1.210;2023-03-23T08:09:05;24.23;;;4.17;;
17790;SDS011;9019;48.132;-1.210;2023-03-23T08:11:33;22.97;;;5.07;;
17790;SDS011;9019;48.132;-1.210;2023-03-23T08:14:02;29.83;;;4.43;;
17790;SDS011;9019;48.132;-1.210;2023-03-23T08:16:29;28.20;;;5.13;;
17790;SDS011;9019;48.132;-1.210;2023-03-23T08:18:58;24.83;;;5.07;;
17790;SDS011;9019;48.132;-1.210;2023-03-23T08:21:25;27.87;;;4.93;;
17790;SDS011;9019;48.132;-1.210;2023-03-23T08:23:52;24.20;;;5.70;;
17790;SDS011;9019;48.132;-1.210;2023-03-23T08:26:19;19.23;;;4.03;;
17790;SDS011;9019;48.132;-1.210;2023-03-23T08:28:47;24.87;;;4.70;;
17790;SDS011;9019;48.132;-1.210;2023-03-23T08:31:14;28.00;;;5.10;;
17790;SDS011;9019;48.132;-1.210;2023-03-23T08:33:42;26.00;;;4.23;;
17790;SDS011;9019;48.132;-1.210;2023-03-23T08:36:10;23.33;;;4.60;;
17790;SDS011;9019;48.132;-1.210;2023-03-23T08:38:38;20.50;;;5.17;;
17790;SDS011;9019;48.132;-1.210;2023-03-23T08:41:05;25.53;;;4.73;;
17790;SDS011;9019;48.132;-1.210;2023-03-23T08:43:34;27.97;;;5.30;;
17790;SDS011;9019;48.132;-1.210;2023-03-23T08:46:03;22.17;;;4.63;;
17790;SDS011;9019;48.132;-1.210;2023-03-23T08:48:34;25.50;;;5.00;;
17790;SDS011;9019;48.132;-1.210;2023-03-23T08:51:01;27.00;;;5.07;;
17790;SDS011;9019;48.132;-1.210;2023-03-23T08:53:30;26.67;;;5.23;;
17790;SDS011;9019;48.132;-1.210;2023-03-23T08:56:02;21.73;;;5.20;;
17790;SDS011;9019;48.132;-1.210;2023-03-23T08:58:29;24.20;;;4.80;;
17790;SDS011;9019;48.132;-1.210;2023-03-23T09:00:57;24.93;;;4.70;;
17790;SDS011;9019;48.132;-1.210;2023-03-23T09:03:25;24.40;;;4.67;;
17790;SDS011;9019;48.132;-1.210;2023-03-23T09:05:52;21.20;;;4.37;;
17790;SDS011;9019;48.132;-1.210;2023-03-23T09:08:19;24.10;;;5.07;;
17790;SDS011;9019;48.132;-1.210;2023-03-23T09:10:48;21.63;;;4.40;;
17790;SDS011;9019;48.132;-1.210;2023-03-23T09:13:15;17.40;;;4.03;;
17790;SDS011;9019;48.132;-1.210;2023-03-23T09:15:42;24.17;;;5.00;;
17790;SDS011;9019;48.132;-1.210;2023-03-23T09:18:10;21.13;;;4.47;;
17790;SDS011;9019;48.132;-1.210;2023-03-23T09:20:37;21.90;;;4.23;;
17790;SDS011;9019;48.132;-1.210;2023-03-23T09:23:05;26.10;;;4.63;;
17790;SDS011;9019;48.132;-1.210;2023-03-23T09:25:32;18.97;;;4.07;;
17790;SDS011;9019;48.132;-1.210;2023-03-23T09:28:01;18.43;;;4.07;;
17790;SDS011;9019;48.132;-1.210;2023-03-23T09:30:29;19.87;;;4.10;;
17790;SDS011;9019;48.132;-1.210;2023-03-23T09:32:57;19.60;;;4.00;;
17790;SDS011;9019;48.132;-1.210;2023-03-23T09:35:26;17.77;;;3.83;;
17790;SDS011;9019;48.132;-1.210;2023-03-23T09:37:54;20.60;;;4.20;;
17790;SDS011;9019;48.132;-1.210;2023-03-23T09:40:22;18.67;;;4.37;;
17790;SDS011;9019;48.132;-1.210;2023-03-23T09:45:41;19.73;;;4.63;;
17790;SDS011;9019;48.132;-1.210;2023-03-23T09:48:17;21.50;;;4.53;;
17790;SDS011;9019;48.132;-1.210;2023-03-23T09:50:48;21.13;;;4.20;;
17790;SDS011;9019;48.132;-1.210;2023-03-23T09:53:16;20.20;;;4.27;;
17790;SDS011;9019;48.132;-1.210;2023-03-23T09:55:44;20.67;;;4.27;;
17790;SDS011;9019;48.132;-1.210;2023-03-23T09:58:15;16.93;;;3.70;;
17790;SDS011;9019;48.132;-1.210;2023-03-23T10:00:47;17.63;;;3.73;;
17790;SDS011;9019;48.132;-1.210;2023-03-23T10:03:16;17.70;;;4.20;;
17790;SDS011;9019;48.132;-1.210;2023-03-23T10:05:44;18.87;;;3.93;;
17790;SDS011;9019;48.132;-1.210;2023-03-23T10:08:12;16.70;;;3.53;;
17790;SDS011;9019;48.132;-1.210;2023-03-23T10:10:45;19.53;;;4.50;;
17790;SDS011;9019;48.132;-1.210;2023-03-23T10:13:19;16.07;;;4.00;;
17790;SDS011;9019;48.132;-1.210;2023-03-23T10:15:51;17.57;;;3.77;;
17790;SDS011;9019;48.132;-1.210;2023-03-23T10:18:20;15.90;;;3.77;;
17790;SDS011;9019;48.132;-1.210;2023-03-23T10:20:53;14.50;;;4.00;;
17790;SDS011;9019;48.132;-1.210;2023-03-23T10:23:31;16.83;;;3.57;;
17790;SDS011;9019;48.132;-1.210;2023-03-23T10:26:02;15.27;;;3.10;;
17790;SDS011;9019;48.132;-1.210;2023-03-23T10:28:35;19.07;;;3.90;;
17790;SDS011;9019;48.132;-1.210;2023-03-23T10:31:22;17.23;;;3.77;;
17790;SDS011;9019;48.132;-1.210;2023-03-23T10:33:50;15.20;;;3.40;;
17790;SDS011;9019;48.132;-1.210;2023-03-23T10:36:19;16.13;;;3.43;;
17790;SDS011;9019;48.132;-1.210;2023-03-23T10:38:49;15.07;;;3.00;;
17790;SDS011;9019;48.132;-1.210;2023-03-23T10:41:20;16.33;;;3.40;;
17790;SDS011;9019;48.132;-1.210;2023-03-23T10:43:48;14.70;;;3.90;;
17790;SDS011;9019;48.132;-1.210;2023-03-23T10:46:20;15.87;;;3.67;;
17790;SDS011;9019;48.132;-1.210;2023-03-23T10:48:51;17.20;;;3.37;;
17790;SDS011;9019;48.132;-1.210;2023-03-23T10:51:20;17.17;;;3.77;;
17790;SDS011;9019;48.132;-1.210;2023-03-23T10:53:49;18.63;;;3.67;;
17790;SDS011;9019;48.132;-1.210;2023-03-23T10:56:22;15.40;;;3.50;;
17790;SDS011;9019;48.132;-1.210;2023-03-23T10:58:50;16.47;;;3.63;;
17790;SDS011;9019;48.132;-1.210;2023-03-23T11:01:18;14.70;;;3.90;;
17790;SDS011;9019;48.132;-1.210;2023-03-23T11:03:47;18.30;;;3.83;;
17790;SDS011;9019;48.132;-1.210;2023-03-23T11:06:20;17.67;;;3.70;;
17790;SDS011;9019;48.132;-1.210;2023-03-23T11:08:50;17.30;;;4.50;;
17790;SDS011;9019;48.132;-1.210;2023-03-23T11:11:19;17.53;;;4.53;;
17790;SDS011;9019;48.132;-1.210;2023-03-23T11:13:48;15.23;;;4.63;;
17790;SDS011;9019;48.132;-1.210;2023-03-23T11:16:23;16.60;;;3.40;;
17790;SDS011;9019;48.132;-1.210;2023-03-23T11:18:50;17.63;;;4.20;;
17790;SDS011;9019;48.132;-1.210;2023-03-23T11:21:20;13.60;;;3.50;;
17790;SDS011;9019;48.132;-1.210;2023-03-23T11:23:49;12.63;;;3.50;;
17790;SDS011;9019;48.132;-1.210;2023-03-23T11:26:18;15.43;;;3.27;;
17790;SDS011;9019;48.132;-1.210;2023-03-23T11:28:48;20.10;;;3.73;;
17790;SDS011;9019;48.132;-1.210;2023-03-23T11:31:20;14.90;;;3.97;;
17790;SDS011;9019;48.132;-1.210;2023-03-23T11:33:50;18.73;;;3.47;;
17790;SDS011;9019;48.132;-1.210;2023-03-23T11:36:19;17.60;;;3.67;;
17790;SDS011;9019;48.132;-1.210;2023-03-23T11:38:51;17.30;;;3.93;;
17790;SDS011;9019;48.132;-1.210;2023-03-23T11:41:21;19.83;;;4.43;;
17790;SDS011;9019;48.132;-1.210;2023-03-23T11:43:51;15.03;;;3.93;;
17790;SDS011;9019;48.132;-1.210;2023-03-23T11:46:22;16.53;;;3.87;;
17790;SDS011;9019;48.132;-1.210;2023-03-23T11:48:55;15.67;;;3.43;;
17790;SDS011;9019;48.132;-1.210;2023-03-23T11:51:26;15.70;;;3.63;;
17790;SDS011;9019;48.132;-1.210;2023-03-23T11:53:56;20.07;;;3.97;;
17790;SDS011;9019;48.132;-1.210;2023-03-23T11:56:25;16.00;;;4.03;;
17790;SDS011;9019;48.132;-1.210;2023-03-23T11:58:53;18.00;;;4.10;;
17790;SDS011;9019;48.132;-1.210;2023-03-23T12:01:31;21.13;;;5.22;;
17790;SDS011;9019;48.132;-1.210;2023-03-23T12:04:03;19.35;;;3.80;;
17790;SDS011;9019;48.132;-1.210;2023-03-23T12:06:37;17.55;;;3.88;;
17790;SDS011;9019;48.132;-1.210;2023-03-23T12:09:13;18.23;;;3.90;;
17790;SDS011;9019;48.132;-1.210;2023-03-23T12:11:51;16.60;;;3.78;;
17790;SDS011;9019;48.132;-1.210;2023-03-23T12:14:25;20.70;;;3.78;;
17790;SDS011;9019;48.132;-1.210;2023-03-23T12:16:59;17.70;;;3.72;;
17790;SDS011;9019;48.132;-1.210;2023-03-23T12:19:31;15.00;;;3.85;;
17790;SDS011;9019;48.132;-1.210;2023-03-23T12:22:06;17.90;;;4.20;;
17790;SDS011;9019;48.132;-1.210;2023-03-23T12:24:40;17.45;;;4.70;;
17790;SDS011;9019;48.132;-1.210;2023-03-23T12:27:11;24.38;;;4.65;;
17790;SDS011;9019;48.132;-1.210;2023-03-23T12:29:47;18.67;;;3.78;;
17790;SDS011;9019;48.132;-1.210;2023-03-23T12:32:30;17.88;;;4.13;;
17790;SDS011;9019;48.132;-1.210;2023-03-23T12:35:02;22.88;;;4.47;;
17790;SDS011;9019;48.132;-1.210;2023-03-23T12:37:38;20.43;;;4.30;;
17790;SDS011;9019;48.132;-1.210;2023-03-23T12:40:16;21.35;;;4.15;;
17790;SDS011;9019;48.132;-1.210;2023-03-23T12:42:50;15.48;;;3.42;;
17790;SDS011;9019;48.132;-1.210;2023-03-23T12:45:19;18.85;;;3.58;;
17790;SDS011;9019;48.132;-1.210;2023-03-23T12:47:49;22.48;;;4.72;;
17790;SDS011;9019;48.132;-1.210;2023-03-23T12:50:18;15.60;;;3.75;;
17790;SDS011;9019;48.132;-1.210;2023-03-23T12:52:50;20.60;;;4.40;;
17790;SDS011;9019;48.132;-1.210;2023-03-23T12:55:23;21.88;;;5.00;;
17790;SDS011;9019;48.132;-1.210;2023-03-23T12:57:53;18.08;;;3.70;;
17790;SDS011;9019;48.132;-1.210;2023-03-23T13:00:24;14.38;;;3.83;;
17790;SDS011;9019;48.132;-1.210;2023-03-23T13:02:54;19.17;;;3.83;;
17790;SDS011;9019;48.132;-1.210;2023-03-23T13:05:27;13.90;;;4.03;;
17790;SDS011;9019;48.132;-1.210;2023-03-23T13:07:58;13.48;;;3.20;;
17790;SDS011;9019;48.132;-1.210;2023-03-23T13:10:26;15.82;;;3.17;;
17790;SDS011;9019;48.132;-1.210;2023-03-23T13:12:54;13.93;;;3.38;;
17790;SDS011;9019;48.132;-1.210;2023-03-23T13:15:26;18.83;;;3.72;;
17790;SDS011;9019;48.132;-1.210;2023-03-23T13:17:54;18.00;;;3.90;;
17790;SDS011;9019;48.132;-1.210;2023-03-23T13:20:34;16.08;;;4.22;;
17790;SDS011;9019;48.132;-1.210;2023-03-23T13:23:08;16.85;;;3.72;;
17790;SDS011;9019;48.132;-1.210;2023-03-23T13:25:46;14.80;;;3.58;;
17790;SDS011;9019;48.132;-1.210;2023-03-23T13:28:14;14.02;;;3.83;;
17790;SDS011;9019;48.132;-1.210;2023-03-23T13:33:32;15.27;;;4.03;;
17790;SDS011;9019;48.132;-1.210;2023-03-23T13:36:04;17.17;;;3.85;;
17790;SDS011;9019;48.132;-1.210;2023-03-23T13:38:34;18.20;;;3.53;;
17790;SDS011;9019;48.132;-1.210;2023-03-23T13:41:06;11.55;;;3.17;;
17790;SDS011;9019;48.132;-1.210;2023-03-23T13:43:35;14.25;;;3.25;;
17790;SDS011;9019;48.132;-1.210;2023-03-23T13:46:07;12.68;;;3.33;;
17790;SDS011;9019;48.132;-1.210;2023-03-23T13:48:44;13.23;;;3.20;;
17790;SDS011;9019;48.132;-1.210;2023-03-23T13:51:32;15.13;;;3.10;;
17790;SDS011;9019;48.132;-1.210;2023-03-23T13:56:50;10.63;;;2.47;;
17790;SDS011;9019;48.132;-1.210;2023-03-23T13:59:28;8.23;;;2.58;;
17790;SDS011;9019;48.132;-1.210;2023-03-23T14:01:56;10.00;;;2.45;;
17790;SDS011;9019;48.132;-1.210;2023-03-23T14:04:30;7.63;;;1.90;;
17790;SDS011;9019;48.132;-1.210;2023-03-23T14:07:07;11.73;;;2.83;;
17790;SDS011;9019;48.132;-1.210;2023-03-23T14:09:37;8.52;;;2.30;;
17790;SDS011;9019;48.132;-1.210;2023-03-23T14:12:13;10.68;;;2.33;;
17790;SDS011;9019;48.132;-1.210;2023-03-23T14:14:42;9.07;;;2.65;;
17790;SDS011;9019;48.132;-1.210;2023-03-23T14:17:12;8.02;;;2.22;;
17790;SDS011;9019;48.132;-1.210;2023-03-23T14:19:40;10.43;;;2.70;;
17790;SDS011;9019;48.132;-1.210;2023-03-23T14:22:16;9.60;;;3.03;;
17790;SDS011;9019;48.132;-1.210;2023-03-23T14:24:44;11.57;;;2.70;;
17790;SDS011;9019;48.132;-1.210;2023-03-23T14:27:14;10.00;;;2.72;;
17790;SDS011;9019;48.132;-1.210;2023-03-23T14:29:41;10.15;;;2.42;;
17790;SDS011;9019;48.132;-1.210;2023-03-23T14:32:10;8.25;;;2.72;;
17790;SDS011;9019;48.132;-1.210;2023-03-23T14:34:39;11.25;;;2.85;;
17790;SDS011;9019;48.132;-1.210;2023-03-23T14:37:08;9.82;;;2.55;;
17790;SDS011;9019;48.132;-1.210;2023-03-23T14:39:36;7.03;;;2.55;;
17790;SDS011;9019;48.132;-1.210;2023-03-23T14:42:04;6.57;;;2.35;;
17790;SDS011;9019;48.132;-1.210;2023-03-23T14:44:37;10.02;;;2.33;;
17790;SDS011;9019;48.132;-1.210;2023-03-23T14:47:06;9.90;;;2.80;;
17790;SDS011;9019;48.132;-1.210;2023-03-23T14:49:36;9.60;;;2.93;;
17790;SDS011;9019;48.132;-1.210;2023-03-23T14:52:08;10.33;;;2.53;;
17790;SDS011;9019;48.132;-1.210;2023-03-23T14:54:35;10.63;;;2.70;;
17790;SDS011;9019;48.132;-1.210;2023-03-23T14:57:09;10.23;;;2.70;;
17790;SDS011;9019;48.132;-1.210;2023-03-23T14:59:40;8.37;;;2.73;;
17790;SDS011;9019;48.132;-1.210;2023-03-23T15:02:10;9.80;;;2.90;;
17790;SDS011;9019;48.132;-1.210;2023-03-23T15:04:38;12.37;;;3.33;;
17790;SDS011;9019;48.132;-1.210;2023-03-23T15:07:05;10.87;;;2.63;;
17790;SDS011;9019;48.132;-1.210;2023-03-23T15:09:33;8.57;;;2.47;;